createdAt,value
2023-04-10T00:01:52.909Z,67.90
2023-04-10T00:04:19.536Z,68.40
2023-04-10T00:06:46.385Z,68.35
2023-04-10T00:09:12.799Z,68.18
2023-04-10T00:11:39.341Z,67.51
2023-04-10T00:14:05.799Z,67.95
2023-04-10T00:16:32.361Z,67.76
2023-04-10T00:18:58.820Z,68.34
2023-04-10T00:21:26.343Z,67.69
2023-04-10T00:23:53.015Z,67.60
2023-04-10T00:26:20.872Z,66.73
2023-04-10T00:28:47.737Z,66.85
2023-04-10T00:31:14.240Z,67.66
2023-04-10T00:33:40.811Z,67.02
2023-04-10T00:36:07.389Z,67.63
2023-04-10T00:38:33.958Z,67.97
2023-04-10T00:41:00.686Z,68.12
2023-04-10T00:43:27.270Z,67.75
2023-04-10T00:45:54.005Z,67.70
2023-04-10T00:48:20.708Z,68.16
2023-04-10T00:50:47.611Z,68.50
2023-04-10T00:53:14.185Z,68.23
2023-04-10T00:55:41.170Z,68.42
2023-04-10T00:58:07.875Z,67.34
2023-04-10T01:00:34.373Z,67.93
2023-04-10T01:03:01.664Z,67.49
2023-04-10T01:05:35.362Z,67.73
2023-04-10T01:08:20.102Z,68.20
2023-04-10T01:11:06.019Z,67.94
2023-04-10T01:13:44.241Z,68.59
2023-04-10T01:16:36.589Z,68.39
2023-04-10T01:19:11.511Z,68.44
2023-04-10T01:21:39.178Z,68.86
2023-04-10T01:24:18.330Z,69.52
2023-04-10T01:27:20.079Z,69.80
2023-04-10T01:29:55.479Z,69.18
2023-04-10T01:32:23.958Z,70.80
2023-04-10T01:34:56.929Z,71.81
2023-04-10T01:37:27.535Z,71.25
2023-04-10T01:40:00.938Z,70.24
2023-04-10T01:42:31.598Z,69.50
2023-04-10T01:45:00.837Z,69.29
2023-04-10T01:47:28.823Z,69.57
2023-04-10T01:49:57.534Z,69.29
2023-04-10T01:52:25.412Z,69.14
2023-04-10T01:55:02.939Z,69.19
2023-04-10T01:57:39.345Z,69.52
2023-04-10T02:00:07.132Z,69.32
2023-04-10T02:02:42.839Z,69.22
2023-04-10T02:05:13.135Z,70.50
2023-04-10T02:07:55.442Z,69.89
2023-04-10T02:10:31.482Z,69.48
2023-04-10T02:13:06.350Z,70.38
2023-04-10T02:15:34.913Z,69.76
2023-04-10T02:18:04.816Z,69.17
2023-04-10T02:20:32.383Z,69.34
2023-04-10T02:23:03.756Z,69.09
2023-04-10T02:25:34.951Z,69.04
2023-04-10T02:28:05.512Z,69.08
2023-04-10T02:30:33.089Z,70.24
2023-04-10T02:33:00.485Z,71.23
2023-04-10T02:35:29.285Z,71.59
2023-04-10T02:37:56.302Z,71.89
2023-04-10T02:40:23.647Z,71.57
2023-04-10T02:43:09.834Z,71.45
2023-04-10T02:45:36.520Z,71.40
2023-04-10T02:48:05.518Z,71.49
2023-04-10T02:50:32.389Z,72.12
2023-04-10T02:52:59.986Z,72.13
2023-04-10T02:55:26.432Z,71.23
2023-04-10T02:57:53.036Z,71.55
2023-04-10T03:00:19.764Z,72.69
2023-04-10T03:03:12.140Z,72.18
2023-04-10T03:05:46.912Z,71.53
2023-04-10T03:08:18.091Z,71.07
2023-04-10T03:10:45.996Z,71.39
2023-04-10T03:13:12.422Z,70.31
2023-04-10T03:15:39.005Z,69.66
2023-04-10T03:18:09.349Z,69.68
2023-04-10T03:20:39.779Z,70.12
2023-04-10T03:23:07.373Z,70.30
2023-04-10T03:25:34.873Z,69.79
2023-04-10T03:28:03.176Z,69.81
2023-04-10T03:30:30.756Z,70.08
2023-04-10T03:32:57.264Z,70.28
2023-04-10T03:35:23.770Z,69.33
2023-04-10T03:37:50.523Z,69.38
2023-04-10T03:40:16.971Z,68.96
2023-04-10T03:42:43.549Z,69.20
2023-04-10T03:45:10.789Z,68.81
2023-04-10T03:47:37.983Z,68.94
2023-04-10T03:50:07.471Z,68.73
2023-04-10T03:52:41.344Z,68.15
2023-04-10T03:55:12.725Z,68.60
2023-04-10T03:57:39.406Z,68.46
2023-04-10T04:00:07.200Z,68.10
2023-04-10T04:02:47.047Z,68.39
2023-04-10T04:05:20.912Z,67.76
2023-04-10T04:08:06.804Z,67.18
2023-04-10T04:10:39.746Z,67.74
2023-04-10T04:13:17.995Z,67.37
2023-04-10T04:16:05.662Z,67.49
2023-04-10T04:18:44.176Z,67.48
2023-04-10T04:21:21.272Z,66.84
2023-04-10T04:24:06.855Z,67.15
2023-04-10T04:26:51.910Z,66.63
2023-04-10T04:29:33.183Z,66.58
2023-04-10T04:32:16.902Z,66.54
2023-04-10T04:34:56.731Z,66.90
2023-04-10T04:37:52.298Z,67.03
2023-04-10T04:40:38.783Z,66.85
2023-04-10T04:43:23.946Z,67.02
2023-04-10T04:46:06.710Z,66.35
2023-04-10T04:48:53.438Z,66.89
2023-04-10T04:51:25.716Z,66.41
2023-04-10T04:54:02.480Z,67.18
2023-04-10T04:56:40.726Z,67.56
2023-04-10T04:59:21.989Z,67.27
2023-04-10T05:02:15.005Z,67.30
2023-04-10T05:05:06.414Z,66.67
2023-04-10T05:07:58.811Z,66.82
2023-04-10T05:10:42.030Z,66.49
2023-04-10T05:13:12.669Z,66.55
2023-04-10T05:16:02.348Z,67.03
2023-04-10T05:18:53.264Z,66.80
2023-04-10T05:21:40.370Z,66.27
2023-04-10T05:24:22.648Z,65.99
2023-04-10T05:27:09.167Z,66.36
2023-04-10T05:29:57.890Z,66.02
2023-04-10T05:32:46.982Z,66.05
2023-04-10T05:35:48.958Z,65.38
2023-04-10T05:38:32.626Z,65.31
2023-04-10T05:41:31.231Z,64.69
2023-04-10T05:44:06.908Z,64.31
2023-04-10T05:46:53.386Z,63.83
2023-04-10T05:49:27.822Z,64.14
2023-04-10T05:52:11.300Z,63.51
2023-04-10T05:54:52.050Z,63.37
2023-04-10T05:57:51.458Z,62.26
2023-04-10T06:00:37.078Z,61.19
2023-04-10T06:03:31.010Z,60.75
2023-04-10T06:06:02.521Z,59.50
2023-04-10T06:08:30.738Z,58.72
2023-04-10T06:10:57.234Z,65.95
2023-04-10T06:13:24.637Z,63.15
2023-04-10T06:15:54.820Z,53.26
2023-04-10T06:18:21.416Z,54.22
2023-04-10T06:20:48.137Z,53.12
2023-04-10T06:23:14.598Z,52.71
2023-04-10T06:25:42.254Z,52.53
2023-04-10T06:28:08.682Z,52.04
2023-04-10T06:30:37.223Z,50.43
2023-04-10T06:33:06.281Z,50.02
2023-04-10T06:35:36.431Z,49.55
2023-04-10T06:38:03.758Z,49.66
2023-04-10T06:40:34.120Z,48.44
2023-04-10T06:43:01.309Z,49.05
2023-04-10T06:45:34.181Z,45.87
2023-04-10T06:48:00.905Z,45.03
2023-04-10T06:50:27.480Z,45.26
2023-04-10T06:52:55.915Z,44.33
2023-04-10T06:55:22.357Z,43.96
2023-04-10T06:57:48.811Z,43.15
2023-04-10T07:00:15.626Z,44.08
2023-04-10T07:02:42.133Z,42.68
2023-04-10T07:05:09.062Z,40.81
2023-04-10T07:07:35.819Z,42.74
2023-04-10T07:10:02.296Z,42.08
2023-04-10T07:12:29.347Z,43.15
2023-04-10T07:14:55.958Z,42.49
2023-04-10T07:17:22.418Z,41.94
2023-04-10T07:19:48.835Z,41.31
2023-04-10T07:22:15.739Z,42.60
2023-04-10T07:24:42.387Z,40.29
2023-04-10T07:27:08.792Z,40.72
2023-04-10T07:29:35.598Z,39.66
2023-04-10T07:32:02.164Z,40.06
2023-04-10T07:34:28.901Z,39.51
2023-04-10T07:36:55.428Z,38.20
2023-04-10T07:39:21.998Z,38.96
2023-04-10T07:41:48.485Z,40.46
2023-04-10T07:44:15.017Z,40.27
2023-04-10T07:46:41.800Z,39.98
2023-04-10T07:49:08.883Z,40.32
2023-04-10T07:51:35.628Z,40.23
2023-04-10T07:54:03.535Z,39.89
2023-04-10T07:56:31.440Z,39.32
2023-04-10T07:59:00.754Z,39.77
2023-04-10T08:01:28.677Z,37.85
2023-04-10T08:03:56.474Z,36.91
2023-04-10T08:06:23.282Z,36.38
2023-04-10T08:08:50.789Z,36.50
2023-04-10T08:11:29.119Z,36.16
2023-04-10T08:13:58.263Z,37.18
2023-04-10T08:16:26.529Z,38.38
2023-04-10T08:18:54.964Z,37.39
2023-04-10T08:21:22.408Z,37.57
2023-04-10T08:23:53.246Z,37.20
2023-04-10T08:26:21.205Z,38.29
2023-04-10T08:28:52.737Z,37.07
2023-04-10T08:31:20.864Z,37.12
2023-04-10T08:33:48.464Z,37.60
2023-04-10T08:36:17.662Z,36.75
2023-04-10T08:38:46.129Z,36.98
2023-04-10T08:41:17.242Z,36.00
2023-04-10T08:43:45.683Z,35.47
2023-04-10T08:46:13.174Z,35.03
2023-04-10T08:49:01.356Z,34.78
2023-04-10T08:51:34.442Z,35.83
2023-04-10T08:54:06.605Z,35.82
2023-04-10T08:56:34.921Z,35.33
2023-04-10T08:59:04.786Z,35.71
2023-04-10T09:01:31.617Z,34.83
2023-04-10T09:03:58.848Z,36.39
2023-04-10T09:06:26.056Z,35.48
2023-04-10T09:08:52.665Z,35.96
2023-04-10T09:11:19.246Z,34.67
2023-04-10T09:13:46.289Z,34.33
2023-04-10T09:16:13.939Z,35.10
2023-04-10T09:18:44.319Z,35.14
2023-04-10T09:21:12.208Z,35.51
2023-04-10T09:23:38.954Z,35.86
2023-04-10T09:26:31.551Z,35.82
2023-04-10T09:29:00.414Z,35.99
2023-04-10T09:31:30.362Z,35.37
2023-04-10T09:34:16.907Z,34.92
2023-04-10T09:36:58.511Z,35.42
2023-04-10T09:39:36.045Z,35.41
2023-04-10T09:42:02.839Z,34.88
2023-04-10T09:44:34.478Z,35.10
2023-04-10T09:47:21.656Z,34.70
2023-04-10T09:49:56.352Z,34.12
2023-04-10T09:52:27.884Z,34.79
2023-04-10T09:54:56.086Z,34.09
2023-04-10T09:57:24.539Z,34.25
2023-04-10T09:59:58.546Z,33.75
2023-04-10T10:02:28.779Z,34.05
2023-04-10T10:04:57.006Z,33.59
2023-04-10T10:07:24.005Z,34.37
2023-04-10T10:09:52.313Z,34.34
2023-04-10T10:13:00.267Z,34.44
2023-04-10T10:15:54.777Z,33.60
2023-04-10T10:18:43.921Z,33.62
2023-04-10T10:21:10.532Z,32.75
2023-04-10T10:23:37.981Z,34.06
2023-04-10T10:26:06.590Z,28.88
2023-04-10T10:28:34.794Z,28.04
2023-04-10T10:31:03.033Z,26.97
2023-04-10T10:33:30.612Z,26.15
2023-04-10T10:36:00.618Z,25.85
2023-04-10T10:38:28.217Z,25.63
2023-04-10T10:41:16.727Z,25.30
2023-04-10T10:43:55.780Z,25.48
2023-04-10T10:46:37.354Z,26.07
2023-04-10T10:49:03.796Z,25.65
2023-04-10T10:51:50.258Z,26.35
2023-04-10T10:54:33.623Z,26.20
2023-04-10T10:57:01.212Z,27.24
2023-04-10T10:59:46.153Z,27.01
2023-04-10T11:02:17.595Z,27.11
2023-04-10T11:04:45.054Z,27.68
2023-04-10T11:07:11.702Z,27.95
2023-04-10T11:09:50.445Z,28.03
2023-04-10T11:12:20.440Z,28.07
2023-04-10T11:15:01.180Z,28.88
2023-04-10T11:17:50.772Z,29.42
2023-04-10T11:20:19.398Z,28.89
2023-04-10T11:23:21.345Z,28.80
2023-04-10T11:25:53.627Z,28.71
2023-04-10T11:28:46.223Z,28.44
2023-04-10T11:31:23.078Z,29.28
2023-04-10T11:33:51.931Z,29.01
2023-04-10T11:36:18.407Z,29.49
2023-04-10T11:38:56.196Z,30.13
2023-04-10T11:41:33.541Z,30.67
2023-04-10T11:44:01.885Z,29.70
2023-04-10T11:46:29.814Z,30.53
2023-04-10T11:49:00.614Z,29.63
2023-04-10T11:51:28.463Z,31.02
2023-04-10T11:54:12.240Z,29.42
2023-04-10T11:56:41.317Z,29.71
2023-04-10T11:59:13.310Z,29.03
2023-04-10T12:01:43.155Z,29.35
2023-04-10T12:04:21.173Z,29.64
2023-04-10T12:06:49.105Z,29.42
2023-04-10T12:09:17.240Z,28.88
2023-04-10T12:12:04.066Z,28.81
2023-04-10T12:14:35.311Z,28.15
2023-04-10T12:17:03.768Z,28.17
2023-04-10T12:19:30.890Z,28.90
2023-04-10T12:21:58.987Z,28.64
2023-04-10T12:24:53.267Z,28.56
2023-04-10T12:27:26.401Z,27.94
2023-04-10T12:29:54.759Z,28.47
2023-04-10T12:32:22.252Z,27.80
2023-04-10T12:34:53.305Z,27.55
2023-04-10T12:37:20.634Z,27.04
2023-04-10T12:39:47.093Z,27.39
2023-04-10T12:42:19.510Z,27.42
2023-04-10T12:44:57.458Z,26.77
2023-04-10T12:47:25.078Z,26.99
2023-04-10T12:50:12.148Z,26.64
2023-04-10T12:52:45.407Z,26.44
2023-04-10T12:55:13.361Z,26.11
2023-04-10T12:57:47.665Z,27.06
2023-04-10T13:00:19.470Z,27.47
2023-04-10T13:02:47.867Z,27.95
2023-04-10T13:05:15.472Z,28.04
2023-04-10T13:07:42.249Z,28.40
2023-04-10T13:10:09.264Z,27.05
2023-04-10T13:12:36.370Z,27.17
2023-04-10T13:15:03.088Z,27.10
2023-04-10T13:17:29.899Z,27.37
2023-04-10T13:19:56.441Z,27.51
2023-04-10T13:22:22.883Z,26.75
2023-04-10T13:24:49.390Z,25.80
2023-04-10T13:27:16.077Z,25.92
2023-04-10T13:29:43.162Z,25.44
2023-04-10T13:32:09.999Z,25.03
2023-04-10T13:34:36.527Z,25.26
2023-04-10T13:37:03.129Z,25.20
2023-04-10T13:39:31.358Z,25.18
2023-04-10T13:42:02.076Z,25.52
2023-04-10T13:44:28.625Z,25.82
2023-04-10T13:46:55.171Z,24.66
2023-04-10T13:49:22.236Z,25.15
2023-04-10T13:51:49.135Z,25.17
2023-04-10T13:54:17.339Z,25.15
2023-04-10T13:56:44.925Z,25.50
2023-04-10T13:59:11.398Z,25.54
2023-04-10T14:01:38.003Z,25.95
2023-04-10T14:04:04.620Z,24.79
2023-04-10T14:06:31.671Z,25.13
2023-04-10T14:08:58.535Z,26.08
2023-04-10T14:11:25.892Z,24.38
2023-04-10T14:13:52.574Z,24.68
2023-04-10T14:16:19.404Z,24.80
2023-04-10T14:18:45.925Z,24.92
2023-04-10T14:21:12.391Z,24.73
2023-04-10T14:23:40.744Z,24.72
2023-04-10T14:26:07.350Z,24.64
2023-04-10T14:28:33.923Z,25.36
2023-04-10T14:31:00.896Z,25.15
2023-04-10T14:33:27.435Z,25.29
2023-04-10T14:35:54.547Z,25.30
2023-04-10T14:38:21.094Z,24.58
2023-04-10T14:40:50.027Z,24.48
2023-04-10T14:43:17.140Z,23.69
2023-04-10T14:45:43.739Z,23.79
2023-04-10T14:48:12.605Z,23.66
2023-04-10T14:50:39.372Z,24.04
2023-04-10T14:53:06.208Z,24.30
2023-04-10T14:55:32.715Z,24.31
2023-04-10T14:57:59.160Z,24.59
2023-04-10T15:00:26.221Z,24.31
2023-04-10T15:02:52.883Z,25.14
2023-04-10T15:05:19.574Z,25.30
2023-04-10T15:07:46.122Z,25.34
2023-04-10T15:10:12.643Z,25.22
2023-04-10T15:12:39.245Z,25.26
2023-04-10T15:15:06.649Z,25.41
2023-04-10T15:17:33.090Z,25.25
2023-04-10T15:19:59.624Z,25.51
2023-04-10T15:22:26.898Z,25.69
2023-04-10T15:24:53.327Z,25.75
2023-04-10T15:27:21.184Z,25.69
2023-04-10T15:29:48.016Z,26.31
2023-04-10T15:32:14.514Z,26.26
2023-04-10T15:34:40.986Z,26.10
2023-04-10T15:37:07.443Z,26.40
2023-04-10T15:39:33.982Z,26.59
2023-04-10T15:42:00.493Z,26.78
2023-04-10T15:44:27.008Z,27.16
2023-04-10T15:46:53.431Z,27.30
2023-04-10T15:49:29.557Z,27.07
2023-04-10T15:52:00.875Z,27.52
2023-04-10T15:54:27.361Z,27.52
2023-04-10T15:56:53.848Z,27.38
2023-04-10T15:59:20.326Z,27.60
2023-04-10T16:01:46.815Z,27.87
2023-04-10T16:04:13.384Z,28.14
2023-04-10T16:06:40.010Z,28.15
2023-04-10T16:09:15.226Z,28.66
2023-04-10T16:11:50.073Z,28.48
2023-04-10T16:14:18.802Z,29.21
2023-04-10T16:16:45.695Z,29.33
2023-04-10T16:19:12.231Z,29.65
2023-04-10T16:21:38.692Z,29.41
2023-04-10T16:24:05.397Z,30.04
2023-04-10T16:26:32.032Z,30.15
2023-04-10T16:28:58.542Z,30.50
2023-04-10T16:31:25.172Z,30.71
2023-04-10T16:33:51.706Z,30.94
2023-04-10T16:36:18.193Z,31.08
2023-04-10T16:38:45.132Z,31.35
2023-04-10T16:41:12.500Z,31.62
2023-04-10T16:43:39.104Z,31.86
2023-04-10T16:46:05.983Z,32.24
2023-04-10T16:48:34.198Z,32.91
2023-04-10T16:51:06.167Z,33.61
2023-04-10T16:53:33.668Z,33.73
2023-04-10T16:56:02.924Z,33.72
2023-04-10T16:58:30.839Z,34.08
2023-04-10T17:00:57.389Z,34.28
2023-04-10T17:03:23.945Z,34.59
2023-04-10T17:05:51.293Z,34.77
2023-04-10T17:08:17.737Z,35.01
2023-04-10T17:10:44.291Z,35.18
2023-04-10T17:13:10.856Z,35.31
2023-04-10T17:15:37.336Z,35.73
2023-04-10T17:18:03.896Z,35.74
2023-04-10T17:20:30.941Z,36.04
2023-04-10T17:22:57.424Z,35.80
2023-04-10T17:25:23.934Z,36.06
2023-04-10T17:27:50.627Z,36.53
2023-04-10T17:30:17.085Z,36.49
2023-04-10T17:32:43.610Z,36.63
2023-04-10T17:35:10.209Z,36.77
2023-04-10T17:37:36.672Z,37.18
2023-04-10T17:40:03.287Z,37.33
2023-04-10T17:42:30.311Z,37.64
2023-04-10T17:44:56.787Z,37.83
2023-04-10T17:47:23.379Z,38.17
2023-04-10T17:49:49.882Z,37.90
2023-04-10T17:52:16.327Z,38.40
2023-04-10T17:54:42.741Z,38.47
2023-04-10T17:57:09.270Z,38.52
2023-04-10T17:59:35.780Z,38.75
2023-04-10T18:02:02.263Z,38.89
2023-04-10T18:04:29.376Z,39.30
2023-04-10T18:06:55.874Z,39.37
2023-04-10T18:09:22.309Z,39.79
2023-04-10T18:11:50.657Z,39.72
2023-04-10T18:14:17.141Z,40.32
2023-04-10T18:16:43.741Z,40.51
2023-04-10T18:19:10.294Z,40.19
2023-04-10T18:21:36.782Z,40.40
2023-04-10T18:24:03.822Z,40.72
2023-04-10T18:26:33.248Z,40.80
2023-04-10T18:29:01.336Z,40.71
2023-04-10T18:31:28.019Z,40.74
2023-04-10T18:34:06.463Z,41.30
2023-04-10T18:36:34.600Z,41.31
2023-04-10T18:39:01.042Z,41.45
2023-04-10T18:41:27.473Z,41.58
2023-04-10T18:44:04.368Z,41.32
2023-04-10T18:46:32.517Z,41.72
2023-04-10T18:49:00.677Z,41.83
2023-04-10T18:51:27.677Z,41.63
2023-04-10T18:53:54.379Z,41.95
2023-04-10T18:56:20.944Z,41.99
2023-04-10T18:58:49.637Z,42.01
2023-04-10T19:01:17.834Z,42.22
2023-04-10T19:03:46.850Z,42.19
2023-04-10T19:06:15.429Z,42.21
2023-04-10T19:08:42.019Z,42.71
2023-04-10T19:11:09.270Z,42.99
2023-04-10T19:13:35.797Z,42.92
2023-04-10T19:16:05.455Z,42.82
2023-04-10T19:18:32.245Z,43.61
2023-04-10T19:20:59.260Z,43.41
2023-04-10T19:23:26.581Z,43.15
2023-04-10T19:25:54.661Z,44.16
2023-04-10T19:28:23.170Z,44.09
2023-04-10T19:30:49.849Z,44.53
2023-04-10T19:33:17.059Z,45.08
2023-04-10T19:35:43.519Z,44.91
2023-04-10T19:38:10.003Z,45.13
2023-04-10T19:40:37.069Z,45.82
2023-04-10T19:43:03.641Z,46.08
2023-04-10T19:45:32.126Z,46.47
2023-04-10T19:47:58.857Z,46.66
2023-04-10T19:50:27.610Z,48.29
2023-04-10T19:52:54.041Z,49.45
2023-04-10T19:55:20.965Z,51.25
2023-04-10T19:57:47.517Z,51.72
2023-04-10T20:00:14.478Z,52.26
2023-04-10T20:02:41.299Z,52.80
2023-04-10T20:05:08.547Z,51.85
2023-04-10T20:07:35.460Z,51.68
2023-04-10T20:10:03.455Z,51.97
2023-04-10T20:12:33.095Z,51.80
2023-04-10T20:15:03.749Z,51.28
2023-04-10T20:17:30.979Z,51.37
2023-04-10T20:19:57.738Z,51.27
2023-04-10T20:22:24.232Z,51.18
2023-04-10T20:24:50.766Z,51.29
2023-04-10T20:27:17.509Z,51.07
2023-04-10T20:29:43.980Z,51.25
2023-04-10T20:32:10.482Z,51.47
2023-04-10T20:34:37.189Z,51.16
2023-04-10T20:37:05.579Z,51.24
2023-04-10T20:39:33.272Z,50.74
2023-04-10T20:41:59.704Z,51.17
2023-04-10T20:44:26.286Z,51.42
2023-04-10T20:46:52.826Z,50.80
2023-04-10T20:49:19.314Z,51.12
2023-04-10T20:51:46.698Z,51.16
2023-04-10T20:54:13.157Z,51.27
2023-04-10T20:56:43.283Z,51.32
2023-04-10T20:59:10.071Z,51.15
2023-04-10T21:01:36.688Z,50.90
2023-04-10T21:04:03.262Z,51.34
2023-04-10T21:06:32.002Z,50.21
2023-04-10T21:08:58.547Z,50.96
2023-04-10T21:11:28.230Z,50.45
2023-04-10T21:13:54.738Z,50.63
2023-04-10T21:16:21.354Z,50.69
2023-04-10T21:18:47.965Z,50.84
2023-04-10T21:21:14.704Z,50.26
2023-04-10T21:23:41.375Z,50.60
2023-04-10T21:26:07.909Z,50.33
2023-04-10T21:28:34.388Z,50.27
2023-04-10T21:31:00.862Z,50.26
2023-04-10T21:33:27.473Z,51.08
2023-04-10T21:35:53.945Z,52.70
2023-04-10T21:38:20.680Z,52.83
2023-04-10T21:40:53.967Z,52.79
2023-04-10T21:43:21.329Z,53.24
2023-04-10T21:45:48.135Z,54.63
2023-04-10T21:48:14.765Z,54.56
2023-04-10T21:50:41.288Z,54.52
2023-04-10T21:53:07.941Z,54.73
2023-04-10T21:55:34.433Z,54.26
2023-04-10T21:58:00.905Z,54.80
2023-04-10T22:00:28.663Z,56.23
2023-04-10T22:02:55.400Z,58.12
2023-04-10T22:05:24.119Z,58.80
2023-04-10T22:07:50.713Z,59.19
2023-04-10T22:10:17.358Z,59.95
2023-04-10T22:12:45.911Z,60.41
2023-04-10T22:15:14.505Z,61.10
2023-04-10T22:17:41.083Z,61.82
2023-04-10T22:20:07.883Z,61.80
2023-04-10T22:22:34.361Z,62.15
2023-04-10T22:25:00.809Z,61.53
2023-04-10T22:27:27.229Z,61.96
2023-04-10T22:30:03.189Z,62.14
2023-04-10T22:32:31.815Z,63.18
2023-04-10T22:34:59.308Z,63.66
2023-04-10T22:37:26.232Z,66.04
2023-04-10T22:39:52.880Z,67.38
2023-04-10T22:42:19.286Z,68.47
2023-04-10T22:44:46.129Z,68.63
2023-04-10T22:47:12.603Z,70.15
2023-04-10T22:49:39.024Z,71.37
2023-04-10T22:52:05.678Z,72.17
2023-04-10T22:54:32.103Z,73.54
2023-04-10T22:56:58.530Z,74.21
2023-04-10T22:59:24.990Z,75.23
2023-04-10T23:01:51.624Z,76.02
2023-04-10T23:04:18.262Z,76.89
2023-04-10T23:06:44.880Z,77.08
2023-04-10T23:09:11.348Z,77.25
2023-04-10T23:11:37.886Z,78.04
2023-04-10T23:14:04.391Z,78.15
2023-04-10T23:16:31.034Z,79.08
2023-04-10T23:18:57.689Z,79.15
2023-04-10T23:21:24.174Z,79.20
2023-04-10T23:23:50.652Z,80.43
2023-04-10T23:26:17.093Z,81.34
2023-04-10T23:28:43.602Z,80.87
2023-04-10T23:31:10.126Z,81.15
2023-04-10T23:33:36.702Z,81.01
2023-04-10T23:36:03.270Z,80.39
2023-04-10T23:38:29.839Z,80.04
2023-04-10T23:40:56.350Z,79.31
2023-04-10T23:43:22.874Z,78.81
2023-04-10T23:45:49.457Z,79.51
2023-04-10T23:48:16.278Z,79.44
2023-04-10T23:50:42.701Z,79.59
2023-04-10T23:53:09.249Z,79.66
2023-04-10T23:55:36.324Z,79.20
2023-04-10T23:58:02.819Z,77.70
